Time;durP1;ratioP1;P1;durP2;ratioP2;P2;SDS_P1;SDS_P2;PMS_P1;PMS_P2;Temp;Humidity;BMP_temperature;BMP_pressure;BME280_temperature;BME280_humidity;BME280_pressure;Samples;Min_cycle;Max_cycle;Signal;HPM_P1;HPM_P2
2021/08/28 00:01:21;;;;;;;4.97;2.90;;;;;;;16.08;67.56;97332.00;4946450;28;20070;-75
2021/08/28 00:03:46;;;;;;;4.28;3.10;;;;;;;16.16;66.97;97320.91;4951205;28;20039;-75
2021/08/28 00:06:12;;;;;;;4.57;3.00;;;;;;;16.25;66.70;97337.63;4951462;29;20514;-75
2021/08/28 00:08:37;;;;;;;4.82;2.75;;;;;;;16.22;66.78;97324.25;4949660;28;20109;-75
2021/08/28 00:11:02;;;;;;;3.72;3.20;;;;;;;16.20;66.98;97332.41;4914717;28;20138;-75
2021/08/28 00:13:28;;;;;;;4.55;3.05;;;;;;;16.18;67.14;97328.50;4954835;28;20037;-75
2021/08/28 00:15:53;;;;;;;6.72;3.33;;;;;;;16.16;67.41;97326.16;4972057;28;20054;-75
2021/08/28 00:18:19;;;;;;;5.65;3.38;;;;;;;16.16;67.14;97320.91;4950755;28;20090;-75
2021/08/28 00:20:44;;;;;;;4.43;3.38;;;;;;;16.21;67.15;97328.75;4935399;29;20109;-75
2021/08/28 00:23:09;;;;;;;3.67;2.97;;;;;;;16.24;67.02;97332.63;4903945;29;20129;-75
2021/08/28 00:25:35;;;;;;;4.00;3.15;;;;;;;16.20;67.34;97329.78;4919660;29;20455;-75
2021/08/28 00:28:02;;;;;;;4.88;3.28;;;;;;;16.23;66.74;97325.84;4919944;28;20038;-75
2021/08/28 00:30:28;;;;;;;4.68;3.10;;;;;;;16.24;67.01;97327.38;4950222;29;20648;-75
2021/08/28 00:32:53;;;;;;;3.97;3.05;;;;;;;16.20;67.18;97327.16;4925212;28;20038;-74
2021/08/28 00:35:19;;;;;;;5.47;3.15;;;;;;;16.16;67.05;97320.91;4970435;28;20471;-75
2021/08/28 00:37:44;;;;;;;6.03;3.40;;;;;;;16.21;67.10;97326.09;4950337;28;20375;-75
2021/08/28 00:40:10;;;;;;;4.07;3.22;;;;;;;16.21;67.15;97323.47;4935162;29;20031;-74
2021/08/28 00:42:55;;;;;;;5.35;3.42;;;;;;;15.99;67.72;97317.88;4929705;29;20117;-75
2021/08/28 00:45:22;;;;;;;5.10;3.88;;;;;;;16.16;67.27;97315.66;4938720;28;20101;-75
2021/08/28 00:48:06;;;;;;;4.10;3.70;;;;;;;16.04;67.60;97317.84;4919070;29;20031;-75
2021/08/28 00:50:33;;;;;;;5.50;3.45;;;;;;;16.14;67.87;97320.38;4919239;29;20058;-75
2021/08/28 00:53:03;;;;;;;4.78;3.88;;;;;;;16.11;67.57;97307.81;4935222;28;20709;-75
2021/08/28 00:55:32;;;;;;;4.28;3.88;;;;;;;16.06;67.77;97321.75;4938322;28;20022;-75
2021/08/28 00:58:01;;;;;;;5.15;3.90;;;;;;;16.12;67.71;97319.09;4954038;28;20062;-75
2021/08/28 01:00:27;;;;;;;5.53;4.00;;;;;;;16.14;67.46;97316.97;4964825;28;20137;-75
2021/08/28 01:02:52;;;;;;;4.90;3.50;;;;;;;16.12;67.32;97311.22;4930256;28;20122;-74
2021/08/28 01:05:39;;;;;;;8.93;5.18;;;;;;;15.93;67.67;97316.38;4920731;28;20035;-75
2021/08/28 01:08:16;;;;;;;6.03;4.70;;;;;;;15.98;67.52;97318.94;4934659;29;20046;-75
2021/08/28 01:10:45;;;;;;;11.50;5.68;;;;;;;16.08;67.16;97318.88;4949015;28;20041;-75
2021/08/28 01:13:15;;;;;;;6.85;4.63;;;;;;;15.98;67.70;97326.81;4937156;28;20070;-75
2021/08/28 01:15:41;;;;;;;7.25;4.63;;;;;;;16.08;67.53;97319.63;4934755;29;20073;-75
2021/08/28 01:18:09;;;;;;;8.90;4.60;;;;;;;16.03;67.57;97319.69;4940995;28;20066;-75
2021/08/28 01:20:48;;;;;;;5.20;4.25;;;;;;;16.06;67.29;97313.88;4931181;29;20050;-75
2021/08/28 01:23:13;;;;;;;4.82;3.97;;;;;;;16.18;67.05;97308.28;4936737;28;20031;-75
2021/08/28 01:25:40;;;;;;;8.27;4.05;;;;;;;16.14;67.22;97315.13;4952140;28;20027;-75
2021/08/28 01:28:08;;;;;;;6.35;3.88;;;;;;;16.12;67.14;97314.63;4938498;28;20031;-75
2021/08/28 01:30:35;;;;;;;5.18;4.10;;;;;;;16.14;67.09;97301.97;4950541;28;20037;-75
2021/08/28 01:33:02;;;;;;;6.15;3.90;;;;;;;16.19;67.03;97317.69;4925300;28;20054;-75
2021/08/28 01:35:31;;;;;;;6.10;4.30;;;;;;;16.06;67.31;97305.22;4957207;28;20085;-75
2021/08/28 01:37:57;;;;;;;8.23;4.60;;;;;;;16.12;67.28;97309.34;4957412;28;20035;-75
2021/08/28 01:40:22;;;;;;;6.13;4.38;;;;;;;16.12;67.36;97312.00;4938055;29;20394;-75
2021/08/28 01:42:48;;;;;;;6.85;4.25;;;;;;;16.08;67.80;97313.63;4950324;28;20027;-74
2021/08/28 01:45:15;;;;;;;7.20;5.03;;;;;;;16.13;67.49;97320.66;4922378;29;20139;-75
2021/08/28 01:47:41;;;;;;;6.43;4.50;;;;;;;16.13;67.28;97316.19;4938221;29;20035;-75
2021/08/28 01:50:08;;;;;;;5.40;3.83;;;;;;;16.16;67.37;97318.28;4905841;29;20517;-75
2021/08/28 01:52:34;;;;;;;7.50;4.57;;;;;;;16.19;67.51;97320.31;4932507;29;20023;-74
2021/08/28 01:54:59;;;;;;;5.45;4.45;;;;;;;16.14;67.42;97315.13;4937597;29;20390;-75
2021/08/28 01:57:25;;;;;;;6.47;4.60;;;;;;;16.16;67.13;97320.09;4937916;29;20467;-75
2021/08/28 01:59:51;;;;;;;5.85;4.72;;;;;;;16.13;67.54;97318.81;4921896;29;20043;-75
2021/08/28 02:02:16;;;;;;;5.95;4.95;;;;;;;16.11;67.66;97318.31;4920941;29;20042;-75
2021/08/28 02:04:41;;;;;;;7.43;4.70;;;;;;;16.09;67.54;97315.16;4905641;29;20186;-75
2021/08/28 02:07:26;;;;;;;7.05;4.82;;;;;;;15.98;67.97;97316.31;4946640;28;20037;-75
2021/08/28 02:09:58;;;;;;;5.72;4.38;;;;;;;15.99;67.77;97316.06;4934160;29;20042;-75
2021/08/28 02:12:34;;;;;;;6.82;4.10;;;;;;;15.99;67.83;97312.63;4937180;29;20035;-75
2021/08/28 02:15:06;;;;;;;6.15;4.05;;;;;;;16.04;67.69;97313.38;4921857;29;20039;-75
2021/08/28 02:17:34;;;;;;;7.60;4.85;;;;;;;16.05;67.79;97314.16;4947829;28;20111;-75
2021/08/28 02:20:03;;;;;;;8.20;4.50;;;;;;;15.96;68.04;97315.81;4956471;28;20053;-75
2021/08/28 02:22:31;;;;;;;8.15;5.10;;;;;;;16.06;67.90;97310.47;4940893;28;20031;-75
2021/08/28 02:25:02;;;;;;;6.65;4.30;;;;;;;16.00;67.93;97309.72;4945453;28;20027;-75
2021/08/28 02:27:31;;;;;;;6.45;4.38;;;;;;;16.01;67.96;97308.69;4956668;28;20114;-75
2021/08/28 02:29:59;;;;;;;6.88;4.88;;;;;;;15.98;67.99;97311.84;4937746;28;20105;-75
2021/08/28 02:32:26;;;;;;;8.98;4.97;;;;;;;16.04;68.07;97307.31;4949383;28;20055;-75
2021/08/28 02:34:52;;;;;;;6.28;5.10;;;;;;;16.05;67.97;97303.66;4952824;28;20028;-75
2021/08/28 02:37:18;;;;;;;5.88;4.57;;;;;;;15.98;68.20;97303.19;4949308;29;20043;-75
2021/08/28 02:39:44;;;;;;;7.15;4.20;;;;;;;15.97;68.28;97299.00;4946891;28;20031;-75
2021/08/28 02:42:11;;;;;;;6.32;4.90;;;;;;;15.94;68.30;97299.53;4939785;28;20489;-75
2021/08/28 02:44:39;;;;;;;6.78;4.82;;;;;;;15.89;68.39;97303.78;4956450;28;20121;-75
2021/08/28 02:47:05;;;;;;;9.00;4.93;;;;;;;15.87;68.75;97303.28;4940676;28;20050;-75
2021/08/28 02:49:32;;;;;;;6.93;4.57;;;;;;;15.95;68.50;97304.50;4940044;28;20615;-75
2021/08/28 02:51:59;;;;;;;6.57;4.90;;;;;;;15.88;68.87;97304.81;4924304;28;20074;-75
2021/08/28 02:54:26;;;;;;;6.68;4.82;;;;;;;15.89;68.88;97306.41;4924236;28;20027;-75
2021/08/28 02:56:51;;;;;;;8.90;5.10;;;;;;;15.92;68.93;97305.09;4923958;28;20043;-75
2021/08/28 02:59:18;;;;;;;9.95;5.72;;;;;;;15.94;68.87;97312.66;4959093;28;20100;-75
2021/08/28 03:01:45;;;;;;;8.05;5.85;;;;;;;15.90;68.91;97309.81;4959524;28;20035;-75
2021/08/28 03:04:16;;;;;;;6.90;6.03;;;;;;;15.85;68.84;97300.16;4943001;28;20070;-75
2021/08/28 03:06:41;;;;;;;9.55;6.10;;;;;;;15.95;68.56;97309.00;4954228;28;20105;-75
2021/08/28 03:09:06;;;;;;;9.07;6.50;;;;;;;15.94;68.78;97307.41;4955797;28;20118;-75
2021/08/28 03:11:32;;;;;;;8.73;6.32;;;;;;;15.96;68.69;97306.09;4955784;28;20031;-75
2021/08/28 03:13:57;;;;;;;8.75;5.75;;;;;;;16.00;68.52;97308.94;4940138;28;20465;-75
2021/08/28 03:16:28;;;;;;;8.90;6.13;;;;;;;15.93;68.63;97309.25;4939594;28;20644;-75
2021/08/28 03:18:56;;;;;;;7.80;6.15;;;;;;;15.90;68.60;97307.97;4955939;28;20031;-75
2021/08/28 03:21:22;;;;;;;8.10;6.07;;;;;;;15.86;69.32;97306.94;4954632;28;20035;-75
2021/08/28 03:23:49;;;;;;;8.45;6.63;;;;;;;15.86;69.08;97304.31;4920749;29;20039;-75
2021/08/28 03:26:18;;;;;;;8.65;6.72;;;;;;;15.86;68.98;97301.69;4919229;29;20033;-75
2021/08/28 03:28:44;;;;;;;13.27;8.20;;;;;;;15.95;68.87;97303.75;4931480;28;20042;-75
2021/08/28 03:31:10;;;;;;;9.65;7.38;;;;;;;15.95;68.89;97298.50;4951649;29;20035;-75
2021/08/28 03:33:36;;;;;;;10.40;6.07;;;;;;;15.96;68.88;97298.22;4946846;29;20035;-75
2021/08/28 03:36:01;;;;;;;10.48;6.88;;;;;;;15.90;69.17;97300.09;4937542;28;20090;-75
2021/08/28 03:38:27;;;;;;;10.38;6.75;;;;;;;15.92;68.83;97291.97;4955361;28;20027;-75
2021/08/28 03:40:53;;;;;;;9.70;7.05;;;;;;;15.94;69.16;97299.53;4923335;28;20106;-75
2021/08/28 03:43:19;;;;;;;9.73;7.30;;;;;;;15.91;68.95;97306.91;4923739;28;20482;-75
2021/08/28 03:45:44;;;;;;;10.73;7.03;;;;;;;15.89;69.30;97295.91;4939269;28;20023;-75
2021/08/28 03:48:10;;;;;;;12.00;8.25;;;;;;;15.90;68.90;97302.72;4973530;28;20393;-75
2021/08/28 03:50:35;;;;;;;12.88;8.00;;;;;;;15.82;69.22;97295.44;4974229;28;20450;-75
2021/08/28 03:53:01;;;;;;;11.55;7.55;;;;;;;15.79;69.31;97305.72;4944096;28;20138;-75
2021/08/28 03:55:26;;;;;;;10.60;7.35;;;;;;;15.78;69.46;97304.94;4951640;29;20043;-75
2021/08/28 03:57:51;;;;;;;11.10;8.82;;;;;;;15.77;69.43;97305.97;4951894;29;20039;-75
2021/08/28 04:00:17;;;;;;;10.50;7.50;;;;;;;15.77;69.44;97299.97;4951475;29;20034;-75
2021/08/28 04:02:42;;;;;;;12.00;7.93;;;;;;;15.74;69.58;97301.25;4935375;29;20079;-75
2021/08/28 04:05:08;;;;;;;11.00;7.85;;;;;;;15.71;69.71;97305.22;4951867;29;20027;-75
2021/08/28 04:07:38;;;;;;;9.80;6.90;;;;;;;15.63;69.52;97310.28;4950807;28;20470;-75
2021/08/28 04:10:04;;;;;;;9.77;7.45;;;;;;;15.72;69.23;97306.00;4972370;28;20037;-75
2021/08/28 04:12:30;;;;;;;10.02;6.53;;;;;;;15.67;69.49;97306.81;4958017;28;20058;-75
2021/08/28 04:14:55;;;;;;;8.98;6.70;;;;;;;15.67;69.49;97319.16;4939507;28;20035;-75
2021/08/28 04:17:20;;;;;;;8.18;5.97;;;;;;;15.68;69.58;97315.47;4924503;29;20038;-75
2021/08/28 04:19:46;;;;;;;8.20;6.00;;;;;;;15.67;69.73;97319.16;4932508;28;20411;-75
2021/08/28 04:22:11;;;;;;;10.18;6.22;;;;;;;15.64;70.38;97309.19;4952561;28;20504;-75
2021/08/28 04:24:36;;;;;;;9.90;6.63;;;;;;;15.68;70.10;97307.59;4938613;28;20066;-75
2021/08/28 04:27:03;;;;;;;9.52;6.70;;;;;;;15.67;70.50;97313.91;4923183;28;20027;-75
2021/08/28 04:29:29;;;;;;;9.40;6.70;;;;;;;15.69;70.15;97309.16;4954279;28;20027;-75
2021/08/28 04:31:54;;;;;;;8.55;5.85;;;;;;;15.70;70.04;97308.88;4922490;28;20078;-75
2021/08/28 04:34:20;;;;;;;8.27;6.00;;;;;;;15.73;70.04;97313.59;4970602;28;20367;-74
2021/08/28 04:36:47;;;;;;;7.65;6.10;;;;;;;15.75;70.03;97310.72;4968399;28;20525;-75
2021/08/28 04:39:13;;;;;;;7.35;5.65;;;;;;;15.74;70.02;97309.13;4957610;28;20093;-75
2021/08/28 04:41:38;;;;;;;9.18;6.68;;;;;;;15.75;69.85;97310.72;4973616;28;20030;-75
2021/08/28 04:44:04;;;;;;;10.00;6.30;;;;;;;15.79;69.75;97314.38;4973755;28;20135;-75
2021/08/28 04:46:29;;;;;;;9.63;6.15;;;;;;;15.76;69.48;97309.66;4973663;28;20058;-75
2021/08/28 04:48:55;;;;;;;9.88;7.03;;;;;;;15.78;69.63;97312.81;4957984;28;20679;-75
2021/08/28 04:51:20;;;;;;;8.15;6.03;;;;;;;15.80;69.50;97308.06;4957146;28;20118;-75
2021/08/28 04:53:45;;;;;;;10.60;6.45;;;;;;;15.78;69.66;97312.81;4973483;28;20057;-75
2021/08/28 04:56:11;;;;;;;8.52;5.93;;;;;;;15.72;69.90;97312.00;4973543;28;20075;-75
2021/08/28 04:58:36;;;;;;;10.98;7.00;;;;;;;15.72;69.89;97316.50;4956588;28;20378;-75
2021/08/28 05:01:02;;;;;;;9.80;7.15;;;;;;;15.70;69.82;97316.00;4949564;29;20449;-75
2021/08/28 05:03:27;;;;;;;9.27;6.70;;;;;;;15.72;69.58;97327.78;4925566;29;20118;-75
2021/08/28 05:05:54;;;;;;;10.68;7.20;;;;;;;15.73;70.12;97318.84;4931844;29;20068;-75
2021/08/28 05:08:20;;;;;;;12.85;8.73;;;;;;;15.70;70.26;97326.50;4967595;28;20056;-75
2021/08/28 05:10:46;;;;;;;10.68;8.00;;;;;;;15.75;70.17;97326.47;4958082;28;20347;-75
2021/08/28 05:13:11;;;;;;;10.02;7.45;;;;;;;15.78;70.25;97325.94;4974702;28;20042;-75
2021/08/28 05:15:36;;;;;;;11.57;8.05;;;;;;;15.77;70.26;97327.00;4970961;28;20035;-75
2021/08/28 05:18:04;;;;;;;11.73;8.02;;;;;;;15.79;70.27;97334.59;4972915;28;20030;-75
2021/08/28 05:20:30;;;;;;;15.35;8.48;;;;;;;15.80;70.21;97334.31;4992288;28;20436;-75
2021/08/28 05:22:55;;;;;;;12.30;8.60;;;;;;;15.78;70.27;97339.06;4926417;28;20043;-75
2021/08/28 05:25:25;;;;;;;14.98;8.93;;;;;;;15.68;70.67;97337.25;4932732;28;20055;-75
2021/08/28 05:27:50;;;;;;;12.15;8.35;;;;;;;15.81;70.09;97335.09;4937771;28;20161;-75
2021/08/28 05:30:16;;;;;;;9.77;7.25;;;;;;;15.80;70.05;97338.75;4923817;28;20121;-75
2021/08/28 05:32:43;;;;;;;11.98;7.75;;;;;;;15.78;70.38;97335.63;4973199;28;20043;-75
2021/08/28 05:35:12;;;;;;;11.73;8.25;;;;;;;15.67;70.48;97345.41;4956159;28;20058;-75
2021/08/28 05:37:38;;;;;;;13.90;8.40;;;;;;;15.74;70.59;97349.28;4939990;28;20427;-75
2021/08/28 05:40:06;;;;;;;16.25;9.40;;;;;;;15.65;71.37;97353.53;4939507;28;20323;-75
2021/08/28 05:42:32;;;;;;;13.25;9.60;;;;;;;15.68;71.16;97352.22;4940261;28;20085;-75
2021/08/28 05:44:58;;;;;;;15.20;9.27;;;;;;;15.74;71.13;97345.88;4923762;28;20485;-75
2021/08/28 05:47:23;;;;;;;12.80;8.05;;;;;;;15.79;71.03;97352.97;4923958;28;20030;-75
2021/08/28 05:49:48;;;;;;;16.33;9.70;;;;;;;15.72;71.41;97354.03;4955318;28;20038;-75
2021/08/28 05:52:14;;;;;;;16.00;9.85;;;;;;;15.74;71.21;97356.38;4936207;29;20467;-75
2021/08/28 05:54:39;;;;;;;15.13;8.95;;;;;;;15.76;71.15;97354.28;4931590;29;20460;-75
2021/08/28 05:57:04;;;;;;;14.10;9.40;;;;;;;15.80;71.02;97355.31;4910573;29;20089;-75
2021/08/28 05:59:30;;;;;;;14.63;9.80;;;;;;;15.75;71.37;97355.34;4929418;29;20493;-75
2021/08/28 06:01:55;;;;;;;13.93;8.68;;;;;;;15.81;70.99;97356.09;4951899;29;20039;-75
2021/08/28 06:04:21;;;;;;;13.15;9.15;;;;;;;15.80;71.27;97350.06;4928762;29;20046;-75
2021/08/28 06:06:46;;;;;;;13.95;9.85;;;;;;;15.81;70.92;97346.38;4971504;28;20599;-75
2021/08/28 06:09:12;;;;;;;15.13;9.45;;;;;;;15.83;71.03;97351.34;4955371;28;20389;-75
2021/08/28 06:11:37;;;;;;;14.50;9.57;;;;;;;15.86;71.06;97351.59;4933485;28;20272;-75
2021/08/28 06:14:03;;;;;;;15.35;9.60;;;;;;;15.87;71.30;97350.53;4944146;28;20474;-75
2021/08/28 06:16:29;;;;;;;13.20;9.93;;;;;;;15.94;70.82;97350.22;4971920;28;20041;-75
2021/08/28 06:18:54;;;;;;;15.05;9.10;;;;;;;15.92;71.00;97347.09;4954680;28;20470;-75
2021/08/28 06:21:19;;;;;;;11.73;8.23;;;;;;;15.98;70.50;97348.63;4972066;28;20030;-75
2021/08/28 06:23:45;;;;;;;13.32;9.05;;;;;;;15.98;70.93;97350.47;4954723;28;20030;-75
2021/08/28 06:26:10;;;;;;;11.93;8.75;;;;;;;16.00;70.69;97343.09;4939452;28;20041;-75
2021/08/28 06:28:36;;;;;;;12.82;8.68;;;;;;;15.99;70.69;97352.00;4923330;28;20049;-75
2021/08/28 06:31:01;;;;;;;12.60;8.45;;;;;;;16.00;70.62;97353.59;4954450;28;20281;-75
2021/08/28 06:33:26;;;;;;;12.27;8.32;;;;;;;16.00;70.72;97349.13;4972292;28;20066;-75
2021/08/28 06:35:52;;;;;;;12.98;8.93;;;;;;;16.01;71.04;97352.53;4970697;28;20031;-75
2021/08/28 06:38:17;;;;;;;12.27;8.50;;;;;;;16.04;70.68;97347.53;4955272;28;20415;-75
2021/08/28 06:40:43;;;;;;;9.85;7.88;;;;;;;16.09;70.35;97351.94;4938519;28;20031;-75
2021/08/28 06:43:08;;;;;;;13.32;8.75;;;;;;;16.09;70.54;97342.22;4972105;28;20054;-75
2021/08/28 06:45:34;;;;;;;12.35;8.80;;;;;;;16.18;70.08;97344.28;4938911;28;20027;-75
2021/08/28 06:47:59;;;;;;;11.00;8.10;;;;;;;16.21;70.17;97347.13;4938741;28;20125;-75
2021/08/28 06:50:24;;;;;;;13.95;9.23;;;;;;;16.19;70.23;97348.44;4953950;28;20093;-75
2021/08/28 06:52:50;;;;;;;12.68;8.90;;;;;;;16.23;70.30;97344.22;4941950;29;20114;-75
2021/08/28 06:55:15;;;;;;;13.43;8.35;;;;;;;16.22;70.29;97338.16;4935242;29;20066;-75
2021/08/28 06:57:40;;;;;;;11.27;7.90;;;;;;;16.25;69.94;97340.25;4933565;28;20038;-75
2021/08/28 07:00:07;;;;;;;15.05;9.48;;;;;;;16.21;70.36;97339.25;4953799;28;20050;-75
2021/08/28 07:02:32;;;;;;;13.43;8.88;;;;;;;16.28;70.35;97341.56;4954621;28;20428;-75
2021/08/28 07:04:57;;;;;;;13.68;8.98;;;;;;;16.38;69.92;97341.47;4953935;28;20045;-75
2021/08/28 07:07:23;;;;;;;13.45;8.90;;;;;;;16.43;70.18;97349.28;4938853;28;20085;-75
2021/08/28 07:09:48;;;;;;;14.82;9.40;;;;;;;16.47;70.69;97347.66;4952081;28;20050;-75
2021/08/28 07:12:14;;;;;;;15.63;9.45;;;;;;;16.57;70.01;97340.72;4937364;28;20042;-75
2021/08/28 07:14:41;;;;;;;12.70;8.98;;;;;;;16.69;69.59;97340.34;4940413;28;20062;-77
2021/08/28 07:17:08;;;;;;;16.17;9.45;;;;;;;16.71;70.13;97340.84;4934162;28;20664;-77
2021/08/28 07:19:34;;;;;;;13.73;9.40;;;;;;;16.83;69.68;97339.41;4939289;28;20058;-75
2021/08/28 07:21:59;;;;;;;11.90;7.53;;;;;;;16.90;68.97;97333.84;4933068;29;20478;-75
2021/08/28 07:24:24;;;;;;;12.48;8.50;;;;;;;17.01;68.61;97340.53;4942554;29;20039;-75
2021/08/28 07:26:50;;;;;;;12.23;7.68;;;;;;;17.05;68.55;97340.78;4949097;28;20111;-75
2021/08/28 07:29:15;;;;;;;15.88;8.60;;;;;;;17.08;69.30;97342.03;4935850;28;20050;-75
2021/08/28 07:31:41;;;;;;;12.27;9.20;;;;;;;17.03;69.58;97338.41;4953530;28;20049;-75
2021/08/28 07:34:06;;;;;;;18.05;9.60;;;;;;;17.10;69.21;97338.06;4938008;28;20139;-75
2021/08/28 07:36:31;;;;;;;12.68;8.98;;;;;;;17.14;68.36;97340.94;4918842;29;20063;-75
2021/08/28 07:38:58;;;;;;;12.35;8.23;;;;;;;17.14;67.80;97339.06;4934183;29;20287;-75
2021/08/28 07:41:24;;;;;;;11.38;8.07;;;;;;;17.12;67.90;97341.19;4950022;28;20035;-75
2021/08/28 07:43:49;;;;;;;11.68;8.77;;;;;;;17.13;67.34;97349.88;4956757;28;20081;-74
2021/08/28 07:46:14;;;;;;;13.73;8.50;;;;;;;17.10;67.61;97342.53;4972790;28;20026;-75
2021/08/28 07:48:40;;;;;;;13.20;8.88;;;;;;;17.03;68.63;97348.94;4956448;28;20045;-75
2021/08/28 07:51:05;;;;;;;13.30;9.18;;;;;;;16.99;69.35;97347.91;4956713;28;20403;-74
2021/08/28 07:53:30;;;;;;;12.30;8.68;;;;;;;16.98;68.82;97341.09;4959627;28;20236;-75
2021/08/28 07:55:56;;;;;;;12.43;8.02;;;;;;;17.10;68.33;97337.28;4934584;28;20035;-75
2021/08/28 07:58:21;;;;;;;16.35;8.98;;;;;;;16.99;69.58;97347.91;4952980;28;20497;-74
2021/08/28 08:00:46;;;;;;;13.48;9.15;;;;;;;16.98;69.08;97349.00;4952706;28;20042;-74
2021/08/28 08:03:12;;;;;;;12.65;7.78;;;;;;;17.04;68.54;97344.44;4953174;28;20049;-75
2021/08/28 08:05:37;;;;;;;14.23;8.50;;;;;;;17.11;68.63;97354.63;4964413;28;20092;-75
2021/08/28 08:08:03;;;;;;;12.90;8.23;;;;;;;17.08;68.60;97349.94;4933882;29;20133;-75
2021/08/28 08:10:28;;;;;;;11.15;8.10;;;;;;;17.07;68.23;97350.97;4943427;29;20553;-74
2021/08/28 08:12:55;;;;;;;14.63;8.82;;;;;;;17.02;68.76;97362.38;4934095;29;20058;-75
2021/08/28 08:15:22;;;;;;;14.48;8.43;;;;;;;17.00;69.05;97348.72;4918169;29;20554;-75
2021/08/28 08:17:49;;;;;;;14.82;9.57;;;;;;;16.94;69.19;97363.75;4933673;29;20071;-75
2021/08/28 08:20:16;;;;;;;13.25;9.00;;;;;;;16.98;68.88;97361.34;4949573;29;20482;-75
2021/08/28 08:22:43;;;;;;;14.40;8.93;;;;;;;16.94;69.38;97366.38;4933819;29;20035;-75
2021/08/28 08:25:12;;;;;;;13.82;8.50;;;;;;;16.97;68.97;97362.44;4919019;29;20098;-75
2021/08/28 08:27:39;;;;;;;14.82;9.52;;;;;;;16.96;69.44;97361.63;4949465;29;20085;-75
2021/08/28 08:30:06;;;;;;;13.60;9.00;;;;;;;17.06;68.89;97367.84;4951024;28;20360;-75
2021/08/28 08:32:35;;;;;;;17.52;9.88;;;;;;;17.01;69.88;97361.56;4934254;29;20030;-75
2021/08/28 08:35:01;;;;;;;16.85;9.95;;;;;;;17.08;69.42;97357.81;4948793;28;20031;-75
2021/08/28 08:37:27;;;;;;;14.07;9.57;;;;;;;17.04;69.79;97355.75;4933765;29;20114;-74
2021/08/28 08:39:52;;;;;;;15.57;9.55;;;;;;;17.09;69.44;97362.03;4932510;29;20110;-75
2021/08/28 08:42:22;;;;;;;14.88;10.32;;;;;;;17.00;69.04;97360.03;4925957;29;20381;-75
2021/08/28 08:44:48;;;;;;;14.23;9.35;;;;;;;17.17;69.35;97361.38;4949753;29;20490;-75
2021/08/28 08:47:14;;;;;;;16.85;9.85;;;;;;;17.06;69.52;97355.47;4936126;28;20041;-75
2021/08/28 08:49:40;;;;;;;13.48;8.52;;;;;;;17.10;69.46;97356.50;4952439;28;20037;-74
2021/08/28 08:52:06;;;;;;;15.80;10.20;;;;;;;17.10;68.92;97359.13;4948994;29;20071;-75
2021/08/28 08:54:33;;;;;;;14.23;8.55;;;;;;;17.14;69.04;97354.06;4927949;29;20292;-75
2021/08/28 08:56:59;;;;;;;14.73;10.82;;;;;;;17.21;69.05;97351.88;4914972;29;20036;-75
2021/08/28 08:59:24;;;;;;;13.88;9.80;;;;;;;17.19;68.92;97348.75;4917837;29;20359;-75
2021/08/28 09:01:50;;;;;;;14.88;9.73;;;;;;;17.25;69.04;97360.75;4933472;28;20050;-75
2021/08/28 09:04:15;;;;;;;16.70;10.48;;;;;;;17.14;70.05;97361.97;4933230;29;20438;-75
2021/08/28 09:06:45;;;;;;;17.00;10.63;;;;;;;17.20;70.07;97358.19;4911486;28;20409;-75
2021/08/28 09:09:10;;;;;;;15.60;9.75;;;;;;;17.20;69.90;97364.25;4942099;28;20055;-75
2021/08/28 09:11:56;;;;;;;17.95;10.65;;;;;;;16.94;70.75;97368.25;4941566;28;20313;-75
2021/08/28 09:14:22;;;;;;;16.80;11.85;;;;;;;17.14;70.28;97362.75;4951469;28;20051;-75
2021/08/28 09:16:49;;;;;;;15.43;9.20;;;;;;;17.07;70.43;97361.50;4901935;29;20035;-75
2021/08/28 09:19:15;;;;;;;15.60;9.40;;;;;;;17.11;70.38;97360.66;4940745;28;20106;-75
2021/08/28 09:21:41;;;;;;;14.82;10.30;;;;;;;17.18;70.70;97376.13;4917852;29;20122;-75
2021/08/28 09:24:09;;;;;;;16.63;10.43;;;;;;;17.11;70.93;97373.81;4910444;28;20102;-75
2021/08/28 09:26:40;;;;;;;14.73;8.43;;;;;;;17.06;69.82;97381.78;4948799;29;20114;-75
2021/08/28 09:29:07;;;;;;;13.07;9.00;;;;;;;17.10;69.53;97379.38;4913704;29;20550;-75
2021/08/28 09:31:47;;;;;;;13.15;9.30;;;;;;;16.75;70.60;97384.72;4930050;29;20447;-75
2021/08/28 09:34:21;;;;;;;12.13;8.85;;;;;;;16.79;70.77;97379.69;4932256;29;20040;-75
2021/08/28 09:36:59;;;;;;;14.00;9.93;;;;;;;16.63;70.84;97386.94;4914083;29;20036;-75
2021/08/28 09:39:41;;;;;;;12.95;9.95;;;;;;;16.44;70.81;97390.25;4922884;29;20286;-75
2021/08/28 09:42:08;;;;;;;8.52;6.07;;;;;;;16.60;70.07;97393.53;4947698;29;20036;-75
2021/08/28 09:44:42;;;;;;;4.60;3.92;;;;;;;16.47;68.97;97402.84;4901523;29;20027;-74
2021/08/28 09:47:24;;;;;;;5.45;3.72;;;;;;;16.40;69.92;97394.50;4965384;28;20545;-74
2021/08/28 09:49:52;;;;;;;6.82;4.80;;;;;;;16.50;69.41;97392.84;4936044;28;20031;-75
2021/08/28 09:52:29;;;;;;;16.65;11.60;;;;;;;16.28;69.90;97391.47;4938301;29;20051;-75
2021/08/28 09:54:56;;;;;;;7.57;6.00;;;;;;;16.39;69.86;97394.78;4930684;29;20380;-75
2021/08/28 09:57:27;;;;;;;6.15;4.68;;;;;;;16.34;70.03;97389.56;4936905;29;20419;-75
2021/08/28 09:59:56;;;;;;;4.90;4.30;;;;;;;16.38;69.86;97391.38;4933030;29;20031;-75
2021/08/28 10:02:22;;;;;;;7.18;5.22;;;;;;;16.48;70.05;97390.50;4910882;28;20161;-75
2021/08/28 10:04:51;;;;;;;5.90;4.30;;;;;;;16.48;70.31;97393.13;4923996;28;20118;-75
2021/08/28 10:07:24;;;;;;;6.40;5.28;;;;;;;16.47;70.55;97389.72;4972481;28;20039;-75
2021/08/28 10:09:54;;;;;;;11.32;7.30;;;;;;;16.46;70.32;97384.72;4954928;28;20406;-75
2021/08/28 10:12:19;;;;;;;7.13;5.35;;;;;;;16.52;69.96;97386.28;4955306;28;20065;-75
2021/08/28 10:14:47;;;;;;;6.35;5.45;;;;;;;16.46;69.88;97385.50;4939293;28;20062;-75
2021/08/28 10:17:12;;;;;;;6.13;4.80;;;;;;;16.48;69.85;97382.59;4939291;28;20114;-75
2021/08/28 10:19:39;;;;;;;6.60;4.68;;;;;;;16.52;70.21;97385.47;4954912;28;20117;-75
2021/08/28 10:22:05;;;;;;;5.22;3.95;;;;;;;16.57;70.00;97383.59;4937300;29;20494;-75
2021/08/28 10:24:31;;;;;;;5.47;4.18;;;;;;;16.71;70.24;97377.66;4936123;29;20045;-75
2021/08/28 10:26:56;;;;;;;5.40;4.00;;;;;;;16.80;70.22;97370.75;4935957;29;20114;-75
2021/08/28 10:29:24;;;;;;;4.97;3.95;;;;;;;16.74;70.13;97369.22;4919404;29;20038;-75
2021/08/28 10:31:50;;;;;;;4.80;4.22;;;;;;;16.75;70.23;97365.53;4920281;29;20031;-75
2021/08/28 10:34:15;;;;;;;6.72;4.32;;;;;;;16.87;69.95;97365.19;4935654;29;20118;-74
2021/08/28 10:36:41;;;;;;;4.47;3.92;;;;;;;16.89;70.01;97370.94;4966313;28;20029;-75
2021/08/28 10:39:07;;;;;;;4.85;4.05;;;;;;;16.90;70.33;97375.91;4972652;28;20508;-75
2021/08/28 10:41:35;;;;;;;6.35;4.00;;;;;;;16.79;69.86;97377.03;4974288;28;20531;-75
2021/08/28 10:44:00;;;;;;;4.85;3.95;;;;;;;16.81;69.99;97378.34;4942418;28;20027;-75
2021/08/28 10:46:30;;;;;;;4.18;3.70;;;;;;;16.67;69.86;97383.50;4957952;28;20034;-75
2021/08/28 10:49:01;;;;;;;4.70;4.00;;;;;;;16.63;70.29;97377.22;4957606;28;20050;-75
2021/08/28 10:51:34;;;;;;;4.60;4.18;;;;;;;16.66;70.77;97370.63;4973765;28;20035;-75
2021/08/28 10:54:04;;;;;;;5.70;4.82;;;;;;;16.72;70.75;97372.13;4968609;28;20093;-75
2021/08/28 10:56:51;;;;;;;5.57;4.57;;;;;;;16.74;71.21;97374.47;4938448;28;20035;-75
2021/08/28 10:59:31;;;;;;;5.70;4.00;;;;;;;16.82;70.61;97376.50;4954195;28;20030;-75
2021/08/28 11:02:11;;;;;;;7.13;4.65;;;;;;;16.69;71.02;97374.53;4971483;28;20046;-75
2021/08/28 11:04:47;;;;;;;6.50;4.60;;;;;;;16.66;70.97;97376.66;4954456;28;20110;-75
2021/08/28 11:07:24;;;;;;;4.90;3.92;;;;;;;16.64;70.87;97386.66;4953942;28;20062;-75
2021/08/28 11:10:15;;;;;;;6.60;5.47;;;;;;;16.56;71.42;97389.91;4954046;28;20109;-75
2021/08/28 11:12:42;;;;;;;10.73;7.50;;;;;;;16.66;71.47;97383.75;4954500;28;20045;-75
2021/08/28 11:15:31;;;;;;;10.70;7.75;;;;;;;16.54;72.00;97373.63;4971451;28;20146;-75
2021/08/28 11:17:58;;;;;;;4.32;3.35;;;;;;;16.86;71.49;97369.63;4971544;28;20057;-75
2021/08/28 11:20:25;;;;;;;5.85;3.47;;;;;;;16.88;70.40;97367.53;4937530;28;20106;-75
2021/08/28 11:22:51;;;;;;;4.03;3.38;;;;;;;16.85;70.70;97368.09;4943270;29;20293;-75
2021/08/28 11:25:19;;;;;;;3.33;3.03;;;;;;;16.86;69.88;97372.25;4936029;28;20031;-75
2021/08/28 11:27:47;;;;;;;3.42;2.80;;;;;;;16.84;69.52;97377.81;4960275;28;20034;-75
2021/08/28 11:30:14;;;;;;;3.35;2.75;;;;;;;16.83;69.76;97376.22;4936535;28;20039;-75